createdAt,value
2022-10-17T00:00:49.383Z,15.17
2022-10-17T00:01:52.599Z,15.15
2022-10-17T00:02:56.600Z,15.14
2022-10-17T00:03:58.375Z,15.13
2022-10-17T00:05:01.222Z,15.12
2022-10-17T00:06:06.127Z,15.12
2022-10-17T00:07:08.948Z,15.11
2022-10-17T00:08:12.929Z,15.11
2022-10-17T00:09:16.948Z,15.10
2022-10-17T00:10:19.845Z,15.10
2022-10-17T00:11:24.493Z,15.09
2022-10-17T00:12:26.278Z,15.09
2022-10-17T00:13:29.599Z,15.08
2022-10-17T00:14:31.445Z,15.08
2022-10-17T00:15:34.491Z,15.07
2022-10-17T00:16:37.344Z,15.07
2022-10-17T00:17:41.974Z,15.06
2022-10-17T00:18:44.725Z,15.07
2022-10-17T00:19:46.517Z,15.06
2022-10-17T00:20:49.275Z,15.05
2022-10-17T00:21:51.098Z,15.05
2022-10-17T00:22:54.355Z,15.04
2022-10-17T00:23:56.355Z,15.04
2022-10-17T00:24:59.089Z,15.02
2022-10-17T00:26:02.448Z,15.02
2022-10-17T00:27:05.751Z,15.00
2022-10-17T00:28:09.538Z,15.01
2022-10-17T00:29:13.473Z,15.01
2022-10-17T00:30:16.625Z,15.00
2022-10-17T00:31:21.294Z,15.00
2022-10-17T00:32:23.151Z,14.99
2022-10-17T00:33:28.071Z,15.00
2022-10-17T00:34:30.832Z,14.99
2022-10-17T00:35:34.044Z,14.99
2022-10-17T00:36:35.823Z,14.99
2022-10-17T00:37:38.777Z,14.98
2022-10-17T00:38:42.201Z,14.97
2022-10-17T00:39:45.195Z,14.97
2022-10-17T00:40:47.006Z,14.95
2022-10-17T00:41:51.696Z,14.93
2022-10-17T00:42:54.821Z,14.92
2022-10-17T00:43:59.894Z,14.90
2022-10-17T00:45:12.526Z,14.89
2022-10-17T00:46:15.375Z,14.89
2022-10-17T00:47:21.131Z,14.88
2022-10-17T00:48:27.061Z,14.87
2022-10-17T00:49:32.755Z,14.85
2022-10-17T00:50:37.678Z,14.86
2022-10-17T00:51:43.356Z,14.86
2022-10-17T00:52:48.075Z,14.84
2022-10-17T00:53:51.855Z,14.82
2022-10-17T00:54:59.373Z,14.83
2022-10-17T00:56:01.820Z,14.81
2022-10-17T00:57:05.554Z,14.81
2022-10-17T00:58:07.346Z,14.82
2022-10-17T00:59:13.899Z,14.81
2022-10-17T01:00:17.192Z,14.81
2022-10-17T01:01:20.054Z,14.80
2022-10-17T01:02:22.823Z,14.81
2022-10-17T01:03:27.060Z,14.79
2022-10-17T01:04:29.064Z,14.80
2022-10-17T01:05:31.967Z,14.79
2022-10-17T01:06:33.715Z,14.79
2022-10-17T01:07:37.840Z,14.78
2022-10-17T01:08:40.882Z,14.77
2022-10-17T01:09:46.016Z,14.76
2022-10-17T01:10:58.777Z,14.76
2022-10-17T01:12:11.241Z,14.75
2022-10-17T01:13:24.212Z,14.73
2022-10-17T01:14:31.405Z,14.72
2022-10-17T01:15:44.182Z,14.71
2022-10-17T01:16:54.359Z,14.71
2022-10-17T01:18:09.877Z,14.70
2022-10-17T01:19:38.440Z,14.70
2022-10-17T01:21:19.040Z,14.70
2022-10-17T01:22:27.416Z,14.69
2022-10-17T01:24:07.243Z,14.67
2022-10-17T01:25:29.182Z,14.66
2022-10-17T01:26:45.449Z,14.67
2022-10-17T01:28:12.555Z,14.65
2022-10-17T01:29:31.771Z,14.64
2022-10-17T01:30:57.227Z,14.63
2022-10-17T01:32:02.577Z,14.64
2022-10-17T01:33:09.568Z,14.63
2022-10-17T01:34:18.048Z,14.63
2022-10-17T01:35:27.143Z,14.63
2022-10-17T01:36:41.120Z,14.62
2022-10-17T01:37:48.351Z,14.61
2022-10-17T01:38:57.003Z,14.60
2022-10-17T01:40:07.375Z,14.59
2022-10-17T01:41:17.846Z,14.58
2022-10-17T01:42:25.284Z,14.58
2022-10-17T01:43:34.987Z,14.58
2022-10-17T01:44:42.551Z,14.55
2022-10-17T01:45:50.702Z,14.53
2022-10-17T01:47:01.430Z,14.51
2022-10-17T01:48:09.929Z,14.50
2022-10-17T01:49:16.307Z,14.50
2022-10-17T01:50:24.385Z,14.49
2022-10-17T01:51:30.726Z,14.48
2022-10-17T01:52:42.561Z,14.50
2022-10-17T01:53:58.481Z,14.48
2022-10-17T01:55:07.170Z,14.48
2022-10-17T01:56:13.500Z,14.46
2022-10-17T01:57:22.486Z,14.46
2022-10-17T01:58:30.044Z,14.46
2022-10-17T01:59:39.874Z,14.45
2022-10-17T02:00:45.359Z,14.44
2022-10-17T02:01:54.716Z,14.43
2022-10-17T02:03:02.079Z,14.41
2022-10-17T02:04:09.055Z,14.41
2022-10-17T02:05:11.335Z,14.42
2022-10-17T02:06:14.230Z,14.41
2022-10-17T02:07:16.072Z,14.39
2022-10-17T02:08:26.741Z,14.39
2022-10-17T02:09:28.607Z,14.38
2022-10-17T02:10:39.877Z,14.37
2022-10-17T02:11:50.651Z,14.36
2022-10-17T02:12:59.651Z,14.36
2022-10-17T02:14:17.763Z,14.35
2022-10-17T02:15:38.703Z,14.34
2022-10-17T02:16:46.608Z,14.33
2022-10-17T02:17:59.103Z,14.32
2022-10-17T02:19:24.425Z,14.31
2022-10-17T02:20:32.709Z,14.31
2022-10-17T02:21:46.339Z,14.31
2022-10-17T02:22:56.854Z,14.31
2022-10-17T02:24:08.181Z,14.32
2022-10-17T02:25:15.762Z,14.32
2022-10-17T02:26:25.841Z,14.30
2022-10-17T02:27:40.279Z,14.29
2022-10-17T02:28:47.469Z,14.30
2022-10-17T02:29:55.565Z,14.28
2022-10-17T02:31:03.638Z,14.27
2022-10-17T02:32:09.373Z,14.26
2022-10-17T02:33:17.311Z,14.24
2022-10-17T02:34:25.508Z,14.24
2022-10-17T02:35:32.239Z,14.25
2022-10-17T02:36:39.060Z,14.25
2022-10-17T02:37:44.673Z,14.23
2022-10-17T02:38:47.192Z,14.22
2022-10-17T02:39:51.911Z,14.21
2022-10-17T02:40:54.798Z,14.19
2022-10-17T02:42:00.060Z,14.19
2022-10-17T02:43:01.917Z,14.19
2022-10-17T02:44:07.836Z,14.19
2022-10-17T02:45:10.896Z,14.18
2022-10-17T02:46:20.682Z,14.18
2022-10-17T02:47:27.703Z,14.17
2022-10-17T02:48:38.295Z,14.17
2022-10-17T02:49:48.674Z,14.16
2022-10-17T02:51:03.070Z,14.16
2022-10-17T02:52:11.049Z,14.15
2022-10-17T02:53:18.510Z,14.13
2022-10-17T02:54:28.350Z,14.11
2022-10-17T02:55:33.818Z,14.12
2022-10-17T02:57:00.320Z,14.11
2022-10-17T02:58:07.083Z,14.11
2022-10-17T02:59:18.562Z,14.11
2022-10-17T03:00:22.434Z,14.11
2022-10-17T03:01:26.473Z,14.10
2022-10-17T03:02:28.997Z,14.10
2022-10-17T03:03:33.315Z,14.09
2022-10-17T03:04:37.301Z,14.09
2022-10-17T03:05:41.571Z,14.07
2022-10-17T03:06:45.192Z,14.07
2022-10-17T03:07:48.600Z,14.05
2022-10-17T03:08:50.485Z,14.04
2022-10-17T03:09:54.617Z,14.02
2022-10-17T03:10:57.401Z,14.02
2022-10-17T03:12:02.317Z,14.01
2022-10-17T03:13:04.567Z,14.00
2022-10-17T03:14:10.881Z,14.01
2022-10-17T03:15:13.719Z,14.00
2022-10-17T03:16:17.141Z,14.00
2022-10-17T03:17:19.556Z,14.00
2022-10-17T03:18:22.992Z,14.00
2022-10-17T03:19:27.421Z,14.01
2022-10-17T03:20:30.528Z,14.01
2022-10-17T03:21:33.992Z,14.00
2022-10-17T03:22:37.119Z,13.99
2022-10-17T03:23:40.791Z,13.98
2022-10-17T03:24:43.651Z,13.98
2022-10-17T03:25:45.461Z,13.97
2022-10-17T03:26:49.919Z,13.96
2022-10-17T03:27:51.888Z,13.95
2022-10-17T03:28:54.809Z,13.94
2022-10-17T03:29:58.008Z,13.94
2022-10-17T03:31:01.391Z,13.92
2022-10-17T03:32:03.327Z,13.93
2022-10-17T03:33:06.231Z,13.93
2022-10-17T03:34:08.217Z,13.92
2022-10-17T03:35:14.776Z,13.91
2022-10-17T03:36:21.237Z,13.89
2022-10-17T03:37:24.465Z,13.89
2022-10-17T03:38:27.245Z,13.88
2022-10-17T03:39:29.185Z,13.87
2022-10-17T03:40:32.096Z,13.86
2022-10-17T03:41:35.406Z,13.87
2022-10-17T03:42:38.979Z,13.87
2022-10-17T03:43:42.256Z,13.85
2022-10-17T03:44:44.179Z,13.83
2022-10-17T03:45:46.995Z,13.81
2022-10-17T03:46:48.786Z,13.80
2022-10-17T03:47:51.580Z,13.79
2022-10-17T03:48:53.623Z,13.79
2022-10-17T03:49:56.749Z,13.78
2022-10-17T03:51:00.502Z,13.77
2022-10-17T03:52:03.908Z,13.78
2022-10-17T03:53:07.208Z,13.76
2022-10-17T03:54:10.145Z,13.77
2022-10-17T03:55:11.949Z,13.76
2022-10-17T03:56:17.139Z,13.76
2022-10-17T03:57:22.221Z,13.75
2022-10-17T03:58:24.815Z,13.76
2022-10-17T03:59:29.554Z,13.75
2022-10-17T04:00:38.675Z,13.75
2022-10-17T04:01:41.529Z,13.75
2022-10-17T04:02:44.888Z,13.74
2022-10-17T04:03:55.608Z,13.74
2022-10-17T04:04:57.457Z,13.73
2022-10-17T04:06:00.888Z,13.72
2022-10-17T04:07:03.436Z,13.71
2022-10-17T04:08:08.060Z,13.71
2022-10-17T04:09:29.463Z,13.71
2022-10-17T04:10:45.991Z,13.71
2022-10-17T04:11:49.106Z,13.69
2022-10-17T04:12:51.592Z,13.69
2022-10-17T04:13:55.612Z,13.69
2022-10-17T04:14:58.269Z,13.69
2022-10-17T04:16:04.628Z,13.68
2022-10-17T04:17:07.388Z,13.67
2022-10-17T04:18:10.323Z,13.66
2022-10-17T04:19:14.515Z,13.66
2022-10-17T04:20:20.139Z,13.65
2022-10-17T04:21:24.572Z,13.66
2022-10-17T04:22:28.267Z,13.64
2022-10-17T04:23:31.678Z,13.63
2022-10-17T04:24:40.286Z,13.64
2022-10-17T04:25:55.868Z,13.62
2022-10-17T04:26:58.655Z,13.61
2022-10-17T04:28:03.786Z,13.61
2022-10-17T04:29:06.770Z,13.61
2022-10-17T04:30:09.119Z,13.60
2022-10-17T04:31:14.844Z,13.59
2022-10-17T04:32:38.478Z,13.59
2022-10-17T04:33:50.447Z,13.59
2022-10-17T04:34:53.334Z,13.57
2022-10-17T04:35:58.387Z,13.58
2022-10-17T04:37:01.413Z,13.57
2022-10-17T04:38:03.963Z,13.57
2022-10-17T04:39:08.547Z,13.57
2022-10-17T04:40:11.662Z,13.57
2022-10-17T04:41:16.566Z,13.56
2022-10-17T04:42:18.429Z,13.56
2022-10-17T04:43:21.950Z,13.56
2022-10-17T04:44:24.486Z,13.56
2022-10-17T04:45:30.934Z,13.55
2022-10-17T04:46:43.358Z,13.54
2022-10-17T04:47:46.199Z,13.53
2022-10-17T04:48:48.034Z,13.53
2022-10-17T04:49:51.020Z,13.51
2022-10-17T04:50:55.160Z,13.52
2022-10-17T04:52:16.358Z,13.51
2022-10-17T04:53:19.820Z,13.50
2022-10-17T04:54:24.244Z,13.50
2022-10-17T04:55:38.463Z,13.50
2022-10-17T04:56:41.316Z,13.49
2022-10-17T04:57:43.394Z,13.49
2022-10-17T04:58:53.361Z,13.49
2022-10-17T04:59:55.194Z,13.49
2022-10-17T05:01:28.065Z,13.47
2022-10-17T05:02:32.144Z,13.47
2022-10-17T05:03:38.388Z,13.48
2022-10-17T05:04:43.092Z,13.47
2022-10-17T05:05:47.013Z,13.46
2022-10-17T05:06:49.836Z,13.45
2022-10-17T05:08:09.165Z,13.45
2022-10-17T05:09:11.140Z,13.46
2022-10-17T05:10:15.580Z,13.44
2022-10-17T05:11:22.282Z,13.45
2022-10-17T05:12:25.596Z,13.46
2022-10-17T05:13:29.481Z,13.46
2022-10-17T05:14:32.765Z,13.46
2022-10-17T05:15:36.485Z,13.46
2022-10-17T05:16:39.427Z,13.46
2022-10-17T05:17:41.291Z,13.46
2022-10-17T05:18:46.585Z,13.45
2022-10-17T05:19:51.389Z,13.46
2022-10-17T05:20:54.322Z,13.46
2022-10-17T05:21:56.148Z,13.43
2022-10-17T05:23:00.480Z,13.44
2022-10-17T05:24:11.203Z,13.43
2022-10-17T05:25:17.037Z,13.42
2022-10-17T05:26:20.127Z,13.40
2022-10-17T05:27:22.996Z,13.38
2022-10-17T05:28:25.125Z,13.36
2022-10-17T05:29:29.220Z,13.34
2022-10-17T05:30:40.397Z,13.34
2022-10-17T05:31:43.983Z,13.33
2022-10-17T05:32:46.715Z,13.34
2022-10-17T05:33:49.498Z,13.34
2022-10-17T05:34:51.301Z,13.34
2022-10-17T05:35:54.313Z,13.34
2022-10-17T05:36:57.437Z,13.35
2022-10-17T05:38:01.086Z,13.35
2022-10-17T05:39:05.214Z,13.33
2022-10-17T05:40:11.133Z,13.32
2022-10-17T05:41:15.489Z,13.31
2022-10-17T05:42:17.628Z,13.31
2022-10-17T05:43:21.771Z,13.31
2022-10-17T05:44:23.705Z,13.32
2022-10-17T05:45:30.780Z,13.32
2022-10-17T05:46:32.869Z,13.32
2022-10-17T05:47:35.773Z,13.32
2022-10-17T05:48:39.111Z,13.32
2022-10-17T05:49:50.020Z,13.32
2022-10-17T05:51:01.315Z,13.32
2022-10-17T05:52:04.878Z,13.32
2022-10-17T05:53:13.978Z,13.32
2022-10-17T05:54:20.752Z,13.33
2022-10-17T05:55:23.965Z,13.36
2022-10-17T05:56:28.356Z,13.39
2022-10-17T05:57:31.235Z,13.43
2022-10-17T05:58:54.129Z,13.47
2022-10-17T06:00:22.237Z,13.53
2022-10-17T06:01:31.107Z,13.58
2022-10-17T06:02:34.268Z,13.58
2022-10-17T06:03:36.396Z,13.59
2022-10-17T06:04:45.479Z,13.57
2022-10-17T06:05:48.492Z,13.58
2022-10-17T06:06:52.364Z,13.61
2022-10-17T06:07:57.069Z,13.63
2022-10-17T06:09:03.020Z,13.63
2022-10-17T06:10:09.836Z,13.62
2022-10-17T06:11:13.427Z,13.61
2022-10-17T06:12:16.723Z,13.58
2022-10-17T06:13:21.739Z,13.57
2022-10-17T06:14:27.585Z,13.55
2022-10-17T06:15:36.605Z,13.54
2022-10-17T06:16:43.399Z,13.52
2022-10-17T06:17:46.404Z,13.53
2022-10-17T06:19:57.723Z,13.57
2022-10-17T06:21:04.235Z,13.56
2022-10-17T06:22:07.128Z,13.57
2022-10-17T06:23:09.827Z,13.58
2022-10-17T06:24:23.824Z,13.57
2022-10-17T06:25:29.849Z,13.57
2022-10-17T06:26:31.836Z,13.56
2022-10-17T06:27:36.043Z,13.57
2022-10-17T06:28:38.259Z,13.59
2022-10-17T06:29:41.865Z,13.61
2022-10-17T06:30:45.555Z,13.62
2022-10-17T06:31:47.704Z,13.62
2022-10-17T06:32:50.717Z,13.61
2022-10-17T06:33:53.720Z,13.62
2022-10-17T06:34:56.495Z,13.63
2022-10-17T06:35:58.569Z,13.67
2022-10-17T06:37:02.257Z,13.69
2022-10-17T06:38:05.173Z,13.71
2022-10-17T06:39:10.660Z,13.73
2022-10-17T06:40:17.862Z,13.73
2022-10-17T06:41:21.523Z,13.74
2022-10-17T06:42:28.112Z,13.74
2022-10-17T06:43:50.908Z,13.74
2022-10-17T06:45:14.300Z,13.73
2022-10-17T06:46:21.462Z,13.74
2022-10-17T06:47:32.474Z,13.74
2022-10-17T06:48:39.362Z,13.73
2022-10-17T06:50:00.759Z,13.72
2022-10-17T06:51:13.192Z,13.72
2022-10-17T06:52:29.510Z,13.74
2022-10-17T06:54:05.205Z,13.73
2022-10-17T06:55:18.273Z,13.71
2022-10-17T06:56:51.075Z,13.71
2022-10-17T06:58:10.730Z,13.71
2022-10-17T06:59:21.043Z,13.72
2022-10-17T07:00:33.248Z,13.72
2022-10-17T07:01:35.369Z,13.72
2022-10-17T07:02:39.839Z,13.72
2022-10-17T07:03:41.722Z,13.72
2022-10-17T07:04:47.011Z,13.71
2022-10-17T07:05:51.731Z,13.71
2022-10-17T07:06:54.821Z,13.70
2022-10-17T07:07:58.905Z,13.71
2022-10-17T07:09:02.864Z,13.71
2022-10-17T07:10:08.608Z,13.70
2022-10-17T07:11:13.988Z,13.70
2022-10-17T07:12:17.861Z,13.71
2022-10-17T07:13:20.659Z,13.71
2022-10-17T07:14:31.784Z,13.73
2022-10-17T07:15:35.327Z,13.76
2022-10-17T07:16:37.310Z,13.82
2022-10-17T07:17:52.021Z,13.89
2022-10-17T07:18:55.555Z,13.97
2022-10-17T07:19:58.538Z,14.05
2022-10-17T07:21:01.393Z,14.13
2022-10-17T07:22:04.194Z,14.21
2022-10-17T07:23:07.686Z,14.30
2022-10-17T07:24:11.418Z,14.39
2022-10-17T07:25:16.827Z,14.47
2022-10-17T07:26:24.328Z,14.57
2022-10-17T07:27:27.388Z,14.66
2022-10-17T07:28:29.903Z,14.74
2022-10-17T07:29:38.445Z,14.79
2022-10-17T07:30:44.597Z,14.85
2022-10-17T07:31:49.852Z,14.90
2022-10-17T07:32:54.103Z,14.96
2022-10-17T07:33:56.948Z,15.01
2022-10-17T07:34:58.800Z,15.03
2022-10-17T07:36:02.730Z,15.05
2022-10-17T07:37:07.001Z,15.08
2022-10-17T07:38:08.839Z,15.10
2022-10-17T07:39:11.675Z,15.13
2022-10-17T07:40:15.028Z,15.15
2022-10-17T07:41:21.671Z,15.19
2022-10-17T07:42:25.720Z,15.22
2022-10-17T07:43:30.112Z,15.22
2022-10-17T07:44:35.469Z,15.23
2022-10-17T07:45:38.834Z,15.24
2022-10-17T07:46:41.618Z,15.26
2022-10-17T07:47:44.632Z,15.27
2022-10-17T07:48:51.142Z,15.30
2022-10-17T07:49:56.380Z,15.32
2022-10-17T07:50:58.330Z,15.34
2022-10-17T07:52:01.104Z,15.36
2022-10-17T07:53:03.030Z,15.36
2022-10-17T07:54:06.252Z,15.36
2022-10-17T07:55:09.979Z,15.37
2022-10-17T07:56:14.054Z,15.38
2022-10-17T07:57:16.921Z,15.39
2022-10-17T07:58:18.744Z,15.39
2022-10-17T07:59:21.573Z,15.40
2022-10-17T08:00:23.540Z,15.41
2022-10-17T08:01:28.190Z,15.42
2022-10-17T08:02:30.127Z,15.43
2022-10-17T08:03:33.701Z,15.45
2022-10-17T08:04:36.379Z,15.46
2022-10-17T08:05:39.375Z,15.46
2022-10-17T08:06:41.161Z,15.48
2022-10-17T08:07:44.057Z,15.48
2022-10-17T08:08:46.862Z,15.51
2022-10-17T08:09:49.739Z,15.51
2022-10-17T08:10:51.507Z,15.52
2022-10-17T08:12:24.249Z,15.51
2022-10-17T08:13:26.060Z,15.52
2022-10-17T08:14:28.856Z,15.51
2022-10-17T08:15:32.117Z,15.52
2022-10-17T08:16:36.531Z,15.52
2022-10-17T08:17:38.977Z,15.51
2022-10-17T08:18:43.444Z,15.52
2022-10-17T08:19:45.233Z,15.52
2022-10-17T08:20:48.656Z,15.53
2022-10-17T08:21:50.520Z,15.52
2022-10-17T08:22:53.791Z,15.53
2022-10-17T08:23:55.928Z,15.54
2022-10-17T08:24:58.747Z,15.53
2022-10-17T08:26:01.391Z,15.53
2022-10-17T08:27:11.130Z,15.53
2022-10-17T08:28:13.896Z,15.53
2022-10-17T08:29:17.785Z,15.55
2022-10-17T08:30:19.715Z,15.55
2022-10-17T08:31:23.583Z,15.54
2022-10-17T08:32:29.059Z,15.55
2022-10-17T08:33:33.124Z,15.55
2022-10-17T08:34:34.977Z,15.55
2022-10-17T08:35:39.857Z,15.56
2022-10-17T08:36:41.807Z,15.55
2022-10-17T08:37:44.734Z,15.54
2022-10-17T08:38:51.634Z,15.54
2022-10-17T08:39:55.293Z,15.55
2022-10-17T08:41:01.345Z,15.56
2022-10-17T08:42:25.626Z,15.55
2022-10-17T08:43:51.124Z,15.56
2022-10-17T08:45:01.286Z,15.56
2022-10-17T08:46:06.706Z,15.57
2022-10-17T08:47:16.044Z,15.57
2022-10-17T08:48:26.590Z,15.58
2022-10-17T08:49:39.385Z,15.57
2022-10-17T08:50:46.355Z,15.57
2022-10-17T08:51:55.501Z,15.56
2022-10-17T08:53:04.143Z,15.58
2022-10-17T08:54:15.656Z,15.58
2022-10-17T08:55:24.116Z,15.59
2022-10-17T08:56:44.451Z,15.59
2022-10-17T08:57:50.611Z,15.59
2022-10-17T08:58:53.499Z,15.59
2022-10-17T08:59:56.805Z,15.61
2022-10-17T09:01:12.779Z,15.61
2022-10-17T09:02:35.637Z,15.61
2022-10-17T09:04:00.008Z,15.62
2022-10-17T09:05:28.249Z,15.63
2022-10-17T09:06:36.144Z,15.64
2022-10-17T09:07:46.973Z,15.65
2022-10-17T09:09:01.657Z,15.65
2022-10-17T09:10:10.021Z,15.66
2022-10-17T09:11:26.155Z,15.68
2022-10-17T09:12:37.655Z,15.69
2022-10-17T09:13:57.547Z,15.70
2022-10-17T09:15:21.801Z,15.71
2022-10-17T09:16:41.210Z,15.72
2022-10-17T09:17:52.903Z,15.73
2022-10-17T09:19:01.866Z,15.75
2022-10-17T09:20:11.000Z,15.76
2022-10-17T09:21:21.464Z,15.77
2022-10-17T09:22:28.301Z,15.77
2022-10-17T09:23:36.153Z,15.79
2022-10-17T09:24:44.171Z,15.81
2022-10-17T09:25:50.781Z,15.83
2022-10-17T09:26:55.761Z,15.85
2022-10-17T09:28:05.978Z,15.86
2022-10-17T09:29:17.588Z,15.88
2022-10-17T09:30:44.658Z,15.89
2022-10-17T09:31:55.190Z,15.93
2022-10-17T09:32:58.072Z,15.93
2022-10-17T09:34:04.022Z,15.96
2022-10-17T09:35:12.193Z,15.97
2022-10-17T09:36:18.472Z,15.99
2022-10-17T09:37:27.287Z,16.01
2022-10-17T09:38:38.103Z,16.02
2022-10-17T09:39:41.771Z,16.04
2022-10-17T09:40:44.701Z,16.04
2022-10-17T09:41:51.399Z,16.06
2022-10-17T09:42:53.888Z,16.07
2022-10-17T09:43:57.894Z,16.09
2022-10-17T09:45:18.477Z,16.12
2022-10-17T09:46:29.864Z,16.14
2022-10-17T09:47:41.298Z,16.16
2022-10-17T09:48:48.736Z,16.17
2022-10-17T09:49:56.541Z,16.18
2022-10-17T09:51:14.905Z,16.19
2022-10-17T09:52:26.621Z,16.20
2022-10-17T09:53:34.441Z,16.20
2022-10-17T09:54:44.173Z,16.21
2022-10-17T09:55:50.427Z,16.22
2022-10-17T09:57:00.186Z,16.23
2022-10-17T09:58:05.768Z,16.26
2022-10-17T09:59:13.791Z,16.28
2022-10-17T10:00:23.428Z,16.31
2022-10-17T10:01:28.938Z,16.32
2022-10-17T10:02:32.564Z,16.34
2022-10-17T10:03:35.872Z,16.34
2022-10-17T10:05:05.958Z,16.36
2022-10-17T10:06:16.025Z,16.36
2022-10-17T10:07:19.459Z,16.37
2022-10-17T10:08:24.957Z,16.38
2022-10-17T10:09:30.818Z,16.39
2022-10-17T10:10:34.718Z,16.41
2022-10-17T10:11:48.873Z,16.41
2022-10-17T10:13:04.289Z,16.42
2022-10-17T10:14:13.627Z,16.45
2022-10-17T10:15:34.353Z,16.45
2022-10-17T10:16:43.670Z,16.46
2022-10-17T10:17:46.544Z,16.48
2022-10-17T10:18:51.173Z,16.50
2022-10-17T10:19:53.934Z,16.50
2022-10-17T10:21:08.563Z,16.51
2022-10-17T10:22:17.213Z,16.53
2022-10-17T10:23:21.392Z,16.54
2022-10-17T10:24:30.447Z,16.55
2022-10-17T10:25:33.320Z,16.55
2022-10-17T10:26:40.141Z,16.56
2022-10-17T10:27:44.109Z,16.56
2022-10-17T10:28:55.624Z,16.58
2022-10-17T10:29:58.720Z,16.58
2022-10-17T10:31:06.157Z,16.61
2022-10-17T10:32:11.195Z,16.61
2022-10-17T10:33:13.188Z,16.62
2022-10-17T10:34:21.283Z,16.65
2022-10-17T10:35:29.056Z,16.67
2022-10-17T10:36:47.143Z,16.68
2022-10-17T10:37:53.967Z,16.70
2022-10-17T10:39:00.175Z,16.71
2022-10-17T10:40:09.040Z,16.72
2022-10-17T10:41:11.814Z,16.74
2022-10-17T10:42:24.937Z,16.74
2022-10-17T10:43:34.272Z,16.74
2022-10-17T10:44:40.678Z,16.75
2022-10-17T10:45:48.702Z,16.76
2022-10-17T10:47:07.799Z,16.79
2022-10-17T10:48:21.311Z,16.80
2022-10-17T10:49:30.260Z,16.80
2022-10-17T10:50:42.987Z,16.83
2022-10-17T10:51:49.742Z,16.84
2022-10-17T10:53:08.863Z,16.85
2022-10-17T10:54:18.674Z,16.88
2022-10-17T10:55:26.487Z,16.90
2022-10-17T10:56:30.950Z,16.91
2022-10-17T10:57:37.657Z,16.91
2022-10-17T10:58:51.700Z,16.94
2022-10-17T11:00:00.751Z,16.95
2022-10-17T11:01:08.025Z,16.98
2022-10-17T11:02:17.256Z,16.98
2022-10-17T11:03:24.686Z,16.97
2022-10-17T11:04:32.313Z,16.98
2022-10-17T11:05:42.065Z,16.97
2022-10-17T11:06:47.035Z,16.97
2022-10-17T11:07:59.970Z,16.97
2022-10-17T11:09:19.798Z,16.97
2022-10-17T11:10:26.337Z,16.97
2022-10-17T11:11:32.252Z,16.96
2022-10-17T11:12:39.260Z,16.97
2022-10-17T11:13:49.605Z,16.98
2022-10-17T11:14:59.832Z,17.01
2022-10-17T11:16:07.709Z,17.04
2022-10-17T11:17:20.889Z,17.04
2022-10-17T11:18:27.531Z,17.05
2022-10-17T11:19:35.551Z,17.05
2022-10-17T11:20:49.614Z,17.07
2022-10-17T11:22:06.380Z,17.07
2022-10-17T11:23:21.009Z,17.07
2022-10-17T11:24:25.422Z,17.09
2022-10-17T11:25:35.330Z,17.10
2022-10-17T11:26:43.225Z,17.13
2022-10-17T11:27:45.322Z,17.14
2022-10-17T11:28:48.947Z,17.17
2022-10-17T11:29:51.730Z,17.19
2022-10-17T11:30:58.797Z,17.21
2022-10-17T11:32:06.138Z,17.23
2022-10-17T11:33:13.334Z,17.26
2022-10-17T11:34:20.148Z,17.29
2022-10-17T11:35:27.654Z,17.32
2022-10-17T11:36:32.837Z,17.33
2022-10-17T11:37:40.644Z,17.33
2022-10-17T11:38:50.189Z,17.35
2022-10-17T11:39:56.165Z,17.36
2022-10-17T11:40:59.989Z,17.38
2022-10-17T11:42:07.179Z,17.41
2022-10-17T11:43:14.966Z,17.42
2022-10-17T11:44:23.553Z,17.42
2022-10-17T11:45:27.592Z,17.44
2022-10-17T11:46:31.572Z,17.46
2022-10-17T11:47:44.894Z,17.47
2022-10-17T11:49:01.745Z,17.53
2022-10-17T11:52:01.682Z,17.55
2022-10-17T11:53:10.431Z,17.56
2022-10-17T11:54:18.737Z,17.55
2022-10-17T11:55:23.675Z,17.55
2022-10-17T11:56:36.168Z,17.54
2022-10-17T11:57:52.531Z,17.55
2022-10-17T11:59:02.979Z,17.56
2022-10-17T12:00:20.575Z,17.60
2022-10-17T12:01:32.631Z,17.61
2022-10-17T12:02:42.651Z,17.62
2022-10-17T12:04:00.570Z,17.64
2022-10-17T12:05:12.005Z,17.64
2022-10-17T12:06:22.229Z,17.65
2022-10-17T12:07:36.980Z,17.66
2022-10-17T12:08:47.193Z,17.69
2022-10-17T12:09:57.275Z,17.71
2022-10-17T12:11:05.227Z,17.71
2022-10-17T12:12:08.558Z,17.71
2022-10-17T12:14:03.770Z,17.74
2022-10-17T12:15:31.339Z,17.76
2022-10-17T12:16:49.057Z,17.77
2022-10-17T12:17:56.725Z,17.78
2022-10-17T12:19:25.256Z,17.82
2022-10-17T12:20:34.625Z,17.86
2022-10-17T12:21:55.370Z,17.88
2022-10-17T12:23:05.178Z,17.88
2022-10-17T12:24:31.335Z,17.87
2022-10-17T12:26:46.403Z,17.94
2022-10-17T12:27:50.445Z,17.94
2022-10-17T12:28:52.678Z,17.93
2022-10-17T12:30:00.923Z,17.92
2022-10-17T12:31:07.064Z,17.90
2022-10-17T12:32:12.961Z,17.90
2022-10-17T12:33:22.267Z,17.89
2022-10-17T12:34:24.583Z,17.90
2022-10-17T12:35:29.234Z,17.91
2022-10-17T12:36:40.290Z,17.91
2022-10-17T12:38:01.800Z,17.92
2022-10-17T12:39:46.027Z,17.89
2022-10-17T12:40:54.075Z,17.90
2022-10-17T12:42:47.816Z,17.92
2022-10-17T12:43:53.168Z,17.93
2022-10-17T12:44:55.290Z,17.95
2022-10-17T12:45:58.856Z,17.97
2022-10-17T12:47:38.921Z,17.99
2022-10-17T12:49:00.564Z,18.05
2022-10-17T12:50:03.439Z,18.07
2022-10-17T12:53:01.048Z,18.11
2022-10-17T12:54:12.054Z,18.10
2022-10-17T12:55:18.208Z,18.11
2022-10-17T12:56:30.771Z,18.11
2022-10-17T12:57:38.407Z,18.10
2022-10-17T12:58:46.065Z,18.07
2022-10-17T12:59:48.633Z,18.07
2022-10-17T13:01:22.732Z,18.07
2022-10-17T13:02:22.753Z,18.07
2022-10-17T13:03:29.185Z,18.09
2022-10-17T13:04:32.927Z,18.10
2022-10-17T13:05:39.442Z,18.11
2022-10-17T13:06:46.300Z,18.11
2022-10-17T13:07:50.774Z,18.11
2022-10-17T13:09:03.512Z,18.13
2022-10-17T13:10:05.348Z,18.11
2022-10-17T13:11:09.764Z,18.12
2022-10-17T13:12:18.394Z,18.12
2022-10-17T13:13:24.957Z,18.11
2022-10-17T13:14:28.636Z,18.10
2022-10-17T13:15:31.970Z,18.07
2022-10-17T13:16:37.449Z,18.06
2022-10-17T13:17:43.046Z,18.02
2022-10-17T13:18:54.378Z,18.01
2022-10-17T13:19:57.643Z,18.01
2022-10-17T13:21:03.323Z,18.00
2022-10-17T13:22:16.609Z,17.99
2022-10-17T13:23:24.563Z,17.97
2022-10-17T13:24:31.735Z,17.96
2022-10-17T13:25:38.787Z,17.96
2022-10-17T13:26:45.915Z,17.95
2022-10-17T13:27:51.440Z,17.93
2022-10-17T13:29:06.215Z,17.92
2022-10-17T13:30:31.205Z,17.92
2022-10-17T13:31:37.211Z,17.91
2022-10-17T13:32:41.103Z,17.92
2022-10-17T13:33:44.509Z,17.93
2022-10-17T13:34:46.695Z,17.95
2022-10-17T13:36:06.682Z,17.98
2022-10-17T13:37:14.643Z,17.99
2022-10-17T13:39:38.329Z,18.00
2022-10-17T13:40:50.256Z,18.00
2022-10-17T13:41:55.490Z,18.01
2022-10-17T13:43:04.158Z,18.01
2022-10-17T13:44:13.057Z,18.00
2022-10-17T13:45:21.867Z,17.99
2022-10-17T13:46:38.265Z,17.99
2022-10-17T13:47:41.844Z,18.00
2022-10-17T13:48:45.120Z,18.00
2022-10-17T13:49:49.513Z,18.01
2022-10-17T13:51:00.332Z,18.01
2022-10-17T13:52:07.658Z,17.99
2022-10-17T13:53:20.220Z,18.00
2022-10-17T13:54:38.415Z,18.01
2022-10-17T13:56:09.085Z,18.01
2022-10-17T13:57:21.770Z,17.99
2022-10-17T13:58:27.504Z,17.99
2022-10-17T13:59:35.492Z,17.99
2022-10-17T14:00:38.956Z,17.99
2022-10-17T14:01:41.065Z,18.00
2022-10-17T14:02:44.158Z,18.00
2022-10-17T14:03:51.768Z,18.00
2022-10-17T14:05:16.676Z,18.05
2022-10-17T14:06:23.147Z,18.06
2022-10-17T14:07:34.226Z,18.07
2022-10-17T14:08:47.961Z,18.06
2022-10-17T14:09:51.146Z,18.06
2022-10-17T14:10:53.252Z,18.06
2022-10-17T14:12:03.173Z,18.07
2022-10-17T14:13:08.936Z,18.05
2022-10-17T14:14:22.294Z,18.05
2022-10-17T14:15:27.413Z,18.06
2022-10-17T14:16:37.648Z,18.05
2022-10-17T14:17:40.036Z,18.04
2022-10-17T14:18:47.490Z,18.01
2022-10-17T14:20:14.160Z,17.99
2022-10-17T14:21:43.013Z,17.97
2022-10-17T14:22:50.591Z,17.97
2022-10-17T14:24:12.967Z,17.98
2022-10-17T14:25:30.338Z,17.97
2022-10-17T14:26:37.270Z,17.96
2022-10-17T14:27:58.216Z,17.95
2022-10-17T14:29:06.687Z,17.96
2022-10-17T14:31:41.770Z,17.94
2022-10-17T14:32:43.847Z,17.96
2022-10-17T14:33:50.779Z,17.97
2022-10-17T14:35:01.505Z,17.98
2022-10-17T14:36:14.740Z,17.97
2022-10-17T14:37:31.988Z,17.96
2022-10-17T14:38:35.926Z,17.95
2022-10-17T14:39:39.441Z,17.93
2022-10-17T14:40:50.065Z,17.93